Time;durP1;ratioP1;P1;durP2;ratioP2;P2;SDS_P1;SDS_P2;PMS_P1;PMS_P2;Temp;Humidity;BMP_temperature;BMP_pressure;BME280_temperature;BME280_humidity;BME280_pressure;Samples;Min_cycle;Max_cycle;Signal;HPM_P1;HPM_P2
2024/02/24 00:17:57;;;;;;;78.20;35.07;;;8.00;99.90;;;;;;4558952;30;20577;-87
2024/02/24 00:38:46;;;;;;;71.00;35.33;;;8.10;99.90;;;;;;4620500;30;20257;-85
2024/02/24 01:14:19;;;;;;;52.03;32.17;;;8.00;99.90;;;;;;4685961;30;21011;-86
2024/02/24 01:44:51;;;;;;;46.27;28.47;;;7.80;99.90;;;;;;4680789;30;20295;-86
2024/02/24 01:49:12;;;;;;;44.00;28.43;;;7.80;99.90;;;;;;4649476;30;20475;-87
2024/02/24 02:10:10;;;;;;;38.27;24.57;;;7.60;99.90;;;;;;4747726;29;20286;-88
2024/02/24 02:35:32;;;;;;;41.73;26.97;;;7.60;99.90;;;;;;4663830;30;20312;-86
2024/02/24 03:00:37;;;;;;;42.57;28.07;;;7.60;99.90;;;;;;4526400;31;20253;-86
2024/02/24 03:16:10;;;;;;;40.27;27.93;;;7.60;99.90;;;;;;4564595;30;20278;-86
2024/02/24 03:55:59;;;;;;;37.33;26.93;;;7.60;99.90;;;;;;4582511;30;20570;-86
2024/02/24 04:21:55;;;;;;;36.80;26.80;;;7.60;99.90;;;;;;4707199;29;20360;-84
2024/02/24 04:52:30;;;;;;;33.70;24.70;;;7.60;99.90;;;;;;4577299;30;20304;-88
2024/02/24 04:56:50;;;;;;;32.40;24.60;;;7.80;99.90;;;;;;4514744;30;20569;-87
2024/02/24 05:17:50;;;;;;;32.43;22.67;;;7.50;99.90;;;;;;4622020;30;20395;-86
2024/02/24 05:43:09;;;;;;;28.07;20.30;;;7.60;99.90;;;;;;4629174;30;20552;-86
2024/02/24 06:03:27;;;;;;;29.67;21.77;;;7.60;99.90;;;;;;4585368;30;20603;-88
2024/02/24 06:33:43;;;;;;;25.13;18.70;;;7.70;99.90;;;;;;4552123;30;20351;-87
2024/02/24 07:29:02;;;;;;;19.97;15.07;;;8.30;99.90;;;;;;4485504;30;20484;-85
2024/02/24 08:04:30;;;;;;;14.40;11.90;;;8.70;99.90;;;;;;4620630;30;20414;-86
2024/02/24 08:30:32;;;;;;;13.50;10.37;;;9.10;99.90;;;;;;4529550;31;20617;-84
2024/02/24 09:05:54;;;;;;;11.33;10.13;;;9.50;99.90;;;;;;4674143;29;20799;-85
2024/02/24 09:36:27;;;;;;;10.97;9.77;;;10.30;99.90;;;;;;4685378;30;20338;-85
2024/02/24 10:06:16;;;;;;;12.37;9.57;;;11.40;99.90;;;;;;4552285;30;20557;-85
2024/02/24 10:37:21;;;;;;;6.57;5.93;;;12.20;99.90;;;;;;4658434;30;20204;-83
2024/02/24 10:57:35;;;;;;;4.13;3.73;;;11.90;97.90;;;;;;4605576;30;20289;-87
2024/02/24 11:37:32;;;;;;;2.43;2.13;;;11.00;95.30;;;;;;4693575;29;20375;-85
2024/02/24 11:58:17;;;;;;;3.10;2.90;;;10.70;96.30;;;;;;4623627;30;20326;-86
2024/02/24 13:34:52;;;;;;;4.53;4.13;;;9.50;93.40;;;;;;4603352;30;20288;-83
2024/02/24 13:59:41;;;;;;;5.97;4.50;;;9.30;94.10;;;;;;4521725;31;20920;-87
2024/02/24 14:25:28;;;;;;;6.33;5.17;;;9.20;95.90;;;;;;4626762;30;20242;-85
2024/02/24 14:45:30;;;;;;;5.20;4.70;;;9.00;98.60;;;;;;4560550;30;20274;-87
2024/02/24 15:16:03;;;;;;;6.07;5.57;;;8.90;96.00;;;;;;4533750;30;20488;-84
2024/02/24 15:41:27;;;;;;;6.83;5.80;;;8.10;99.70;;;;;;4696663;30;20253;-86
2024/02/24 16:01:40;;;;;;;8.30;6.90;;;7.30;99.90;;;;;;4576554;30;20288;-85
2024/02/24 16:37:23;;;;;;;9.70;8.70;;;5.90;99.90;;;;;;4600554;30;20296;-84
2024/02/24 17:07:46;;;;;;;13.63;10.40;;;5.40;99.90;;;;;;4584069;30;20314;-86
2024/02/24 17:38:21;;;;;;;29.50;21.13;;;4.40;99.90;;;;;;4699452;29;20318;-83
2024/02/24 18:39:02;;;;;;;36.50;23.53;;;3.20;99.90;;;;;;4685637;30;20204;-84
2024/02/24 18:54:28;;;;;;;29.33;19.70;;;3.40;99.90;;;;;;4616760;30;20219;-85
2024/02/24 18:58:48;;;;;;;34.03;21.07;;;3.40;99.90;;;;;;4582210;30;20635;-87
2024/02/24 19:19:52;;;;;;;46.23;31.57;;;2.80;99.90;;;;;;4553710;30;20269;-85
2024/02/24 19:24:11;;;;;;;51.37;32.70;;;2.80;99.90;;;;;;4568492;30;20247;-87
2024/02/24 19:44:57;;;;;;;45.23;29.93;;;2.60;99.90;;;;;;4492790;31;20234;-85
2024/02/24 20:15:07;;;;;;;59.70;39.33;;;2.40;99.90;;;;;;4644554;30;20214;-86
2024/02/24 20:45:26;;;;;;;67.07;44.63;;;2.10;99.90;;;;;;4589177;30;20442;-86
2024/02/24 21:05:59;;;;;;;69.37;44.13;;;2.60;99.90;;;;;;4621920;30;20371;-86
2024/02/24 21:31:31;;;;;;;55.47;35.83;;;2.20;99.90;;;;;;4538499;30;20532;-85
2024/02/24 22:01:53;;;;;;;71.20;44.60;;;1.80;99.90;;;;;;4636689;30;20627;-86
2024/02/24 22:27:06;;;;;;;72.27;45.93;;;1.40;99.90;;;;;;4593233;30;20352;-86
2024/02/24 23:07:21;;;;;;;104.73;63.63;;;1.50;99.90;;;;;;4499775;31;20732;-85
2024/02/24 23:27:38;;;;;;;108.23;66.03;;;1.50;99.90;;;;;;4552670;30;20454;-86
2024/02/24 23:53:01;;;;;;;106.57;65.87;;;1.50;99.90;;;;;;4532189;30;20262;-85
